Weather at Aeropuerto Internacional Miguel Hidalgo

Public forecast

Using degrees Celsius for public forecast. Weather courtesy of forecast.io.

Current aviation weather report (METAR) for Aeropuerto Internacional Miguel Hidalgo

2024/05/25 05:43 (retrieved 35 minutes ago)

MMGL 250543Z 22005KT 8SM FEW300 25/07 A3013 RMK SLP045 52016 951 8/001 HZY

Aviation forecast (TAF) for Aeropuerto Internacional Miguel Hidalgo

2024/05/25 06:21 (retrieved 0 seconds ago)

TAF MMGL 250514Z 2506/2606 27010KT P6SM SCT300 TX35/2521Z TN18/2513Z FM251600 00000KT P6SM SKC FM252000 27015KT P6SM SKC FM260300 27010KT P6SM SCT300